Time;durP1;ratioP1;P1;durP2;ratioP2;P2;SDS_P1;SDS_P2;PMS_P1;PMS_P2;Temp;Humidity;BMP_temperature;BMP_pressure;BME280_temperature;BME280_humidity;BME280_pressure;Samples;Min_cycle;Max_cycle;Signal;HPM_P1;HPM_P2
2022/05/31 00:00:07;;;;;;;12.13;4.93;;;;;;;;;;5066870;28;20081;-77
2022/05/31 00:02:34;;;;;;;12.05;4.30;;;;;;;;;;5077262;28;20428;-77
2022/05/31 00:05:00;;;;;;;11.45;4.00;;;;;;;;;;5076604;28;20055;-78
2022/05/31 00:07:26;;;;;;;8.75;4.00;;;;;;;;;;5084199;28;20107;-78
2022/05/31 00:09:52;;;;;;;10.45;4.25;;;;;;;;;;5083940;28;20385;-78
2022/05/31 00:12:19;;;;;;;13.90;4.35;;;;;;;;;;5084064;28;20024;-78
2022/05/31 00:14:45;;;;;;;10.18;4.57;;;;;;;;;;5084146;28;20040;-78
2022/05/31 00:17:11;;;;;;;12.70;4.15;;;;;;;;;;5083767;28;20074;-78
2022/05/31 00:19:38;;;;;;;11.10;3.80;;;;;;;;;;5082001;28;20036;-77
2022/05/31 00:22:07;;;;;;;14.15;4.60;;;;;;;;;;5082561;28;20059;-77
2022/05/31 00:24:33;;;;;;;14.70;4.65;;;;;;;;;;5084253;28;20110;-78
2022/05/31 00:26:59;;;;;;;10.95;4.18;;;;;;;;;;5072415;28;20021;-78
2022/05/31 00:29:26;;;;;;;10.70;4.32;;;;;;;;;;5079024;28;20024;-78
2022/05/31 00:31:53;;;;;;;12.00;4.10;;;;;;;;;;5083683;28;20028;-77
2022/05/31 00:34:19;;;;;;;11.13;4.00;;;;;;;;;;5083999;28;20040;-77
2022/05/31 00:36:47;;;;;;;7.78;3.63;;;;;;;;;;5082150;28;20020;-77
2022/05/31 00:39:13;;;;;;;12.35;4.25;;;;;;;;;;5083461;28;20024;-77
2022/05/31 00:41:40;;;;;;;12.50;4.15;;;;;;;;;;5083524;28;20012;-77
2022/05/31 00:44:09;;;;;;;12.05;4.32;;;;;;;;;;5083929;28;20012;-78
2022/05/31 00:46:41;;;;;;;10.07;4.18;;;;;;;;;;5082271;28;20031;-77
2022/05/31 00:49:08;;;;;;;10.00;3.97;;;;;;;;;;5084109;28;20016;-77
2022/05/31 00:51:53;;;;;;;7.90;3.53;;;;;;;;;;5083338;28;20016;-77
2022/05/31 00:54:20;;;;;;;13.57;3.67;;;;;;;;;;5083327;28;20040;-78
2022/05/31 00:56:48;;;;;;;12.20;3.72;;;;;;;;;;5083464;28;20020;-78
2022/05/31 00:59:33;;;;;;;13.00;3.95;;;;;;;;;;5082019;28;20075;-77
2022/05/31 01:01:59;;;;;;;9.10;3.63;;;;;;;;;;5083553;28;20032;-77
2022/05/31 01:04:33;;;;;;;8.10;3.45;;;;;;;;;;5083521;28;20106;-77
2022/05/31 01:07:00;;;;;;;10.10;3.75;;;;;;;;;;5083627;28;20021;-77
2022/05/31 01:09:28;;;;;;;9.75;3.83;;;;;;;;;;5087312;28;20054;-77
2022/05/31 01:11:54;;;;;;;13.10;3.90;;;;;;;;;;5085639;28;20427;-78
2022/05/31 01:14:20;;;;;;;8.25;3.20;;;;;;;;;;5087432;28;20071;-78
2022/05/31 01:16:58;;;;;;;14.38;3.70;;;;;;;;;;5087077;28;20480;-78
2022/05/31 01:22:10;;;;;;;11.02;4.05;;;;;;;;;;5087663;28;20031;-78
2022/05/31 01:24:42;;;;;;;10.77;3.83;;;;;;;;;;5087451;28;20016;-77
2022/05/31 01:27:12;;;;;;;12.07;3.95;;;;;;;;;;5076243;28;20020;-77
2022/05/31 01:29:39;;;;;;;8.00;3.55;;;;;;;;;;5082764;28;20066;-78
2022/05/31 01:32:07;;;;;;;9.07;4.00;;;;;;;;;;5086442;28;20094;-77
2022/05/31 01:34:42;;;;;;;9.07;4.20;;;;;;;;;;5086671;28;20369;-77
2022/05/31 01:37:08;;;;;;;10.68;4.20;;;;;;;;;;5086861;28;20012;-77
2022/05/31 01:39:47;;;;;;;6.65;3.63;;;;;;;;;;5086524;28;20440;-77
2022/05/31 01:42:30;;;;;;;10.30;3.88;;;;;;;;;;5085079;28;20020;-77
2022/05/31 01:45:03;;;;;;;13.60;4.05;;;;;;;;;;5086274;28;20016;-77
2022/05/31 01:47:30;;;;;;;10.77;3.65;;;;;;;;;;5086465;28;20344;-78
2022/05/31 01:49:56;;;;;;;9.73;4.05;;;;;;;;;;5086108;28;20020;-77
2022/05/31 01:52:23;;;;;;;8.00;3.75;;;;;;;;;;5084821;28;20020;-78
2022/05/31 01:54:50;;;;;;;9.88;4.13;;;;;;;;;;5086508;28;20042;-77
2022/05/31 01:57:17;;;;;;;9.00;4.00;;;;;;;;;;5070665;28;20423;-77
2022/05/31 01:59:45;;;;;;;9.07;3.78;;;;;;;;;;5072653;28;20025;-78
2022/05/31 02:02:15;;;;;;;14.30;4.13;;;;;;;;;;5085480;28;20086;-77
2022/05/31 02:04:42;;;;;;;9.20;3.33;;;;;;;;;;5085413;28;20329;-78
2022/05/31 02:07:12;;;;;;;13.27;4.05;;;;;;;;;;5082754;28;20095;-78
2022/05/31 02:09:39;;;;;;;11.20;3.65;;;;;;;;;;5085067;28;20450;-78
2022/05/31 02:12:06;;;;;;;10.38;4.32;;;;;;;;;;5085909;28;20499;-77
2022/05/31 02:14:32;;;;;;;8.77;3.65;;;;;;;;;;5084484;28;20032;-77
2022/05/31 02:16:59;;;;;;;6.35;3.63;;;;;;;;;;5069665;28;20051;-78
2022/05/31 02:19:26;;;;;;;10.43;3.88;;;;;;;;;;5065293;28;20079;-77
2022/05/31 02:21:53;;;;;;;11.07;3.72;;;;;;;;;;5068305;28;20016;-77
2022/05/31 02:24:20;;;;;;;5.88;3.67;;;;;;;;;;5085750;28;20035;-77
2022/05/31 02:26:46;;;;;;;8.80;3.75;;;;;;;;;;5085773;28;20020;-77
2022/05/31 02:29:13;;;;;;;13.10;3.90;;;;;;;;;;5085844;28;20101;-77
2022/05/31 02:31:40;;;;;;;9.63;4.47;;;;;;;;;;5085419;28;20430;-77
2022/05/31 02:34:06;;;;;;;5.53;3.50;;;;;;;;;;5075235;28;20394;-77
2022/05/31 02:36:34;;;;;;;9.05;3.90;;;;;;;;;;5080000;28;20020;-77
2022/05/31 02:39:00;;;;;;;10.55;3.65;;;;;;;;;;5085352;28;20032;-77
2022/05/31 02:41:28;;;;;;;11.55;4.18;;;;;;;;;;5085014;28;20035;-77
2022/05/31 02:43:55;;;;;;;10.05;3.80;;;;;;;;;;5085394;28;20464;-78
2022/05/31 02:46:21;;;;;;;11.82;3.80;;;;;;;;;;5085154;28;20099;-77
2022/05/31 02:48:48;;;;;;;10.93;4.05;;;;;;;;;;5083642;28;20023;-77
2022/05/31 02:51:14;;;;;;;10.40;4.07;;;;;;;;;;5074850;28;20577;-77
2022/05/31 02:53:40;;;;;;;12.90;4.18;;;;;;;;;;5080379;28;20236;-77
2022/05/31 02:56:07;;;;;;;12.30;4.70;;;;;;;;;;5085131;28;20380;-78
2022/05/31 02:58:33;;;;;;;10.23;4.82;;;;;;;;;;5085126;28;20013;-78
2022/05/31 03:00:59;;;;;;;10.30;4.68;;;;;;;;;;5082083;28;20258;-78
2022/05/31 03:03:26;;;;;;;12.23;4.45;;;;;;;;;;5083542;28;20515;-77
2022/05/31 03:05:52;;;;;;;9.35;3.55;;;;;;;;;;5084741;28;20020;-77
2022/05/31 03:08:18;;;;;;;12.35;4.00;;;;;;;;;;5085245;28;20039;-78
2022/05/31 03:10:47;;;;;;;11.73;3.90;;;;;;;;;;5083368;28;20171;-78
2022/05/31 03:13:15;;;;;;;11.07;3.60;;;;;;;;;;5083136;28;20024;-77
2022/05/31 03:15:41;;;;;;;9.63;4.30;;;;;;;;;;5084520;28;20028;-77
2022/05/31 03:18:11;;;;;;;11.38;4.45;;;;;;;;;;5084794;28;20027;-77
2022/05/31 03:20:43;;;;;;;11.95;4.80;;;;;;;;;;5083379;28;20452;-78
2022/05/31 03:23:17;;;;;;;10.85;4.40;;;;;;;;;;5084555;28;20486;-77
2022/05/31 03:25:44;;;;;;;11.98;4.75;;;;;;;;;;5070859;28;20040;-78
2022/05/31 03:28:10;;;;;;;15.00;4.40;;;;;;;;;;5082213;28;20259;-77
2022/05/31 03:30:37;;;;;;;9.82;4.10;;;;;;;;;;5083887;28;20081;-77
2022/05/31 03:33:04;;;;;;;8.55;3.65;;;;;;;;;;5084495;28;20255;-77
2022/05/31 03:35:30;;;;;;;10.02;3.50;;;;;;;;;;5084175;28;20060;-77
2022/05/31 03:37:57;;;;;;;11.65;3.63;;;;;;;;;;5084419;28;20016;-77
2022/05/31 03:43:08;;;;;;;13.20;5.10;;;;;;;;;;5080961;28;20276;-78
2022/05/31 03:45:35;;;;;;;12.25;5.85;;;;;;;;;;5071547;28;20028;-78
2022/05/31 03:48:01;;;;;;;16.55;6.32;;;;;;;;;;5084443;28;20028;-78
2022/05/31 03:50:28;;;;;;;10.98;5.78;;;;;;;;;;5082814;28;20020;-77
2022/05/31 03:52:54;;;;;;;10.32;5.88;;;;;;;;;;5084010;28;20024;-77
2022/05/31 03:55:20;;;;;;;12.93;7.68;;;;;;;;;;5083773;28;20036;-77
2022/05/31 03:57:47;;;;;;;13.75;7.80;;;;;;;;;;5083917;28;20024;-77
2022/05/31 04:00:13;;;;;;;14.10;7.00;;;;;;;;;;5082610;28;20178;-78
2022/05/31 04:02:40;;;;;;;15.98;6.40;;;;;;;;;;5082268;28;20040;-77
2022/05/31 04:05:06;;;;;;;12.52;6.18;;;;;;;;;;5083976;28;20069;-77
2022/05/31 04:07:32;;;;;;;13.05;5.75;;;;;;;;;;5083971;28;20035;-78
2022/05/31 04:09:58;;;;;;;15.55;5.90;;;;;;;;;;5083466;28;20040;-77
2022/05/31 04:12:25;;;;;;;11.65;5.70;;;;;;;;;;5082288;28;20085;-77
2022/05/31 04:14:53;;;;;;;12.32;5.78;;;;;;;;;;5083934;28;20031;-77
2022/05/31 04:17:19;;;;;;;12.77;6.18;;;;;;;;;;5083751;28;20345;-77
2022/05/31 04:19:45;;;;;;;13.25;6.10;;;;;;;;;;5083886;28;20119;-78
2022/05/31 04:22:11;;;;;;;16.45;6.13;;;;;;;;;;5083303;28;20024;-78
2022/05/31 04:24:37;;;;;;;13.38;6.65;;;;;;;;;;5079209;28;20084;-78
2022/05/31 04:27:04;;;;;;;11.30;6.20;;;;;;;;;;5072583;28;20024;-77
2022/05/31 04:29:30;;;;;;;15.35;6.93;;;;;;;;;;5083838;28;20028;-77
2022/05/31 04:31:56;;;;;;;13.68;6.57;;;;;;;;;;5083915;28;20279;-78
2022/05/31 04:34:22;;;;;;;12.27;6.55;;;;;;;;;;5069523;28;20051;-77
2022/05/31 04:36:49;;;;;;;11.57;6.95;;;;;;;;;;5081699;28;20406;-77
2022/05/31 04:39:15;;;;;;;12.02;6.57;;;;;;;;;;5083754;28;20477;-77
2022/05/31 04:41:42;;;;;;;13.13;6.78;;;;;;;;;;5083769;28;20027;-77
2022/05/31 04:44:08;;;;;;;17.77;7.28;;;;;;;;;;5082016;28;20507;-77
2022/05/31 04:46:35;;;;;;;10.52;6.50;;;;;;;;;;5087322;28;20020;-77
2022/05/31 04:49:02;;;;;;;19.67;7.38;;;;;;;;;;5087134;28;20337;-77
2022/05/31 04:51:29;;;;;;;15.13;7.50;;;;;;;;;;5087773;28;20028;-77
2022/05/31 04:53:55;;;;;;;11.95;6.80;;;;;;;;;;5087346;28;20020;-77
2022/05/31 04:56:21;;;;;;;14.40;7.13;;;;;;;;;;5087740;28;20451;-77
2022/05/31 04:58:48;;;;;;;21.08;7.38;;;;;;;;;;5085881;28;20013;-77
2022/05/31 05:01:15;;;;;;;10.43;6.45;;;;;;;;;;5087641;28;20361;-77
2022/05/31 05:03:44;;;;;;;18.65;6.57;;;;;;;;;;5087235;28;20184;-77
2022/05/31 05:06:12;;;;;;;18.38;6.90;;;;;;;;;;5087656;28;20031;-77
2022/05/31 05:08:38;;;;;;;15.27;7.55;;;;;;;;;;5085383;28;20039;-78
2022/05/31 05:11:05;;;;;;;13.35;6.80;;;;;;;;;;5087217;28;20020;-77
2022/05/31 05:13:32;;;;;;;12.48;6.82;;;;;;;;;;5087262;28;20024;-77
2022/05/31 05:15:59;;;;;;;11.80;6.30;;;;;;;;;;5086981;28;20085;-77
2022/05/31 05:18:26;;;;;;;17.60;6.63;;;;;;;;;;5086802;28;20024;-78
2022/05/31 05:20:52;;;;;;;16.33;6.35;;;;;;;;;;5086697;28;20019;-78
2022/05/31 05:23:19;;;;;;;14.57;6.00;;;;;;;;;;5086010;28;20032;-77
2022/05/31 05:25:49;;;;;;;19.17;6.85;;;;;;;;;;5072833;28;20094;-77
2022/05/31 05:31:00;;;;;;;14.63;6.63;;;;;;;;;;5075896;28;20116;-78
2022/05/31 05:33:27;;;;;;;13.68;6.53;;;;;;;;;;5080789;28;20080;-78
2022/05/31 05:35:53;;;;;;;16.92;7.13;;;;;;;;;;5072602;28;20072;-77
2022/05/31 05:38:19;;;;;;;20.10;6.53;;;;;;;;;;5086280;28;20020;-77
2022/05/31 05:40:46;;;;;;;13.30;6.00;;;;;;;;;;5086519;28;20442;-77
2022/05/31 05:43:13;;;;;;;14.05;6.65;;;;;;;;;;5080504;28;20029;-77
2022/05/31 05:45:39;;;;;;;15.73;6.38;;;;;;;;;;5077535;28;20089;-77
2022/05/31 05:48:06;;;;;;;18.20;6.50;;;;;;;;;;5086494;28;20527;-77
2022/05/31 05:50:34;;;;;;;10.75;5.70;;;;;;;;;;5086577;28;20028;-78
2022/05/31 05:53:02;;;;;;;12.68;6.38;;;;;;;;;;5086357;28;20024;-78
2022/05/31 05:55:28;;;;;;;15.95;6.85;;;;;;;;;;5084165;28;20032;-78
2022/05/31 05:57:54;;;;;;;8.32;5.50;;;;;;;;;;5086327;28;20021;-77
2022/05/31 06:00:21;;;;;;;15.20;6.38;;;;;;;;;;5080749;28;20024;-78
2022/05/31 06:02:52;;;;;;;13.27;6.53;;;;;;;;;;5077823;28;20109;-77
2022/05/31 06:05:22;;;;;;;16.40;6.18;;;;;;;;;;5086245;28;20441;-78
2022/05/31 06:07:55;;;;;;;15.40;6.35;;;;;;;;;;5084553;28;20097;-77
2022/05/31 06:10:24;;;;;;;13.85;6.28;;;;;;;;;;5086007;28;20056;-78
2022/05/31 06:12:52;;;;;;;11.90;5.60;;;;;;;;;;5086370;28;20035;-77
2022/05/31 06:15:22;;;;;;;15.80;6.28;;;;;;;;;;5085945;28;20089;-78
2022/05/31 06:17:49;;;;;;;16.77;6.35;;;;;;;;;;5084455;28;20020;-77
2022/05/31 06:20:16;;;;;;;9.30;6.03;;;;;;;;;;5085847;28;20024;-77
2022/05/31 06:22:42;;;;;;;18.95;9.30;;;;;;;;;;5086265;28;20069;-78
2022/05/31 06:25:11;;;;;;;17.58;7.63;;;;;;;;;;5085827;28;20028;-77
2022/05/31 06:27:37;;;;;;;13.45;5.90;;;;;;;;;;5066315;28;20031;-78
2022/05/31 06:30:04;;;;;;;9.43;5.70;;;;;;;;;;5074797;28;20067;-78
2022/05/31 06:32:30;;;;;;;16.55;9.93;;;;;;;;;;5069084;28;20377;-77
2022/05/31 06:34:57;;;;;;;16.30;11.35;;;;;;;;;;5065778;28;20077;-78
2022/05/31 06:37:23;;;;;;;16.15;7.47;;;;;;;;;;5079981;28;20068;-76
2022/05/31 06:39:49;;;;;;;12.10;7.00;;;;;;;;;;5085667;28;20529;-77
2022/05/31 06:42:15;;;;;;;16.50;6.90;;;;;;;;;;5085700;28;20024;-78
2022/05/31 06:44:43;;;;;;;13.13;7.57;;;;;;;;;;5085662;28;20027;-77
2022/05/31 06:47:10;;;;;;;29.60;8.85;;;;;;;;;;5084101;28;20032;-78
2022/05/31 06:49:36;;;;;;;18.15;8.07;;;;;;;;;;5085495;28;20046;-78
2022/05/31 06:57:34;;;;;;;14.55;7.20;;;;;;;;;;5065161;28;20077;-77
2022/05/31 07:00:00;;;;;;;15.05;7.82;;;;;;;;;;5064756;28;20070;-77
2022/05/31 07:02:27;;;;;;;12.23;7.75;;;;;;;;;;5064251;28;20123;-77
2022/05/31 07:04:54;;;;;;;17.77;8.85;;;;;;;;;;5066653;28;20555;-77
2022/05/31 07:07:20;;;;;;;24.65;13.30;;;;;;;;;;5069842;28;20202;-78
2022/05/31 07:09:46;;;;;;;24.45;13.00;;;;;;;;;;5064223;28;20016;-77
2022/05/31 07:12:12;;;;;;;21.58;12.25;;;;;;;;;;5064129;28;20473;-78
2022/05/31 07:14:38;;;;;;;17.98;9.48;;;;;;;;;;5071200;28;20540;-78
2022/05/31 07:17:05;;;;;;;16.33;9.70;;;;;;;;;;5072426;28;20020;-78
2022/05/31 07:19:32;;;;;;;30.13;11.73;;;;;;;;;;5075093;28;20111;-78
2022/05/31 07:21:59;;;;;;;18.40;11.65;;;;;;;;;;5063830;28;20047;-78
2022/05/31 07:24:25;;;;;;;24.73;12.85;;;;;;;;;;5064393;28;20025;-78
2022/05/31 07:26:51;;;;;;;25.35;11.77;;;;;;;;;;5063721;28;20526;-77
2022/05/31 07:29:17;;;;;;;19.50;11.85;;;;;;;;;;5068905;28;20027;-78
2022/05/31 07:31:44;;;;;;;25.98;11.90;;;;;;;;;;5063829;28;20495;-78
2022/05/31 07:34:13;;;;;;;20.58;10.38;;;;;;;;;;5064359;28;20119;-78
2022/05/31 07:36:40;;;;;;;21.25;8.90;;;;;;;;;;5067681;28;20024;-78
2022/05/31 07:39:09;;;;;;;17.73;6.90;;;;;;;;;;5068035;28;20034;-77
2022/05/31 07:41:35;;;;;;;16.48;6.65;;;;;;;;;;5064578;28;20457;-78
2022/05/31 07:44:01;;;;;;;13.38;5.28;;;;;;;;;;5062686;28;20020;-78
2022/05/31 07:46:29;;;;;;;11.23;5.07;;;;;;;;;;5064264;28;20090;-78
2022/05/31 07:48:59;;;;;;;14.40;4.82;;;;;;;;;;5068952;28;20025;-77
2022/05/31 07:51:26;;;;;;;25.13;13.80;;;;;;;;;;5068539;28;20496;-79
2022/05/31 07:53:52;;;;;;;18.45;7.85;;;;;;;;;;5063785;28;20116;-78
2022/05/31 07:56:18;;;;;;;26.50;15.48;;;;;;;;;;5064000;28;20024;-78
2022/05/31 07:58:46;;;;;;;41.47;26.92;;;;;;;;;;5064651;28;20017;-79
2022/05/31 08:01:13;;;;;;;35.40;18.88;;;;;;;;;;5063848;28;20020;-78
2022/05/31 08:03:40;;;;;;;28.67;17.65;;;;;;;;;;5062013;28;20481;-77
2022/05/31 08:06:07;;;;;;;15.30;9.85;;;;;;;;;;5062459;28;20070;-78
2022/05/31 08:08:34;;;;;;;16.35;8.05;;;;;;;;;;5063835;28;20358;-78
2022/05/31 08:11:04;;;;;;;12.55;7.07;;;;;;;;;;5064743;28;20482;-78
2022/05/31 08:13:30;;;;;;;14.93;6.88;;;;;;;;;;5063589;28;20082;-78
2022/05/31 08:15:59;;;;;;;13.75;5.72;;;;;;;;;;5062069;28;20079;-78
2022/05/31 08:18:26;;;;;;;10.52;4.80;;;;;;;;;;5062879;28;20021;-78
2022/05/31 08:20:58;;;;;;;10.95;5.53;;;;;;;;;;5074926;28;20035;-78
2022/05/31 08:23:24;;;;;;;9.80;5.47;;;;;;;;;;5063443;28;20024;-78
2022/05/31 08:25:50;;;;;;;13.52;5.07;;;;;;;;;;5063057;28;20037;-78
2022/05/31 08:28:17;;;;;;;13.90;4.65;;;;;;;;;;5062443;28;20025;-78
2022/05/31 08:30:43;;;;;;;16.67;5.50;;;;;;;;;;5065340;28;20052;-78
2022/05/31 08:33:09;;;;;;;12.27;5.32;;;;;;;;;;5063336;28;20044;-78
2022/05/31 08:35:35;;;;;;;12.85;4.55;;;;;;;;;;5063167;28;20032;-79
2022/05/31 08:38:01;;;;;;;12.75;4.50;;;;;;;;;;5062809;28;20013;-78
2022/05/31 08:40:27;;;;;;;13.15;4.00;;;;;;;;;;5061574;28;20546;-78
2022/05/31 08:42:57;;;;;;;12.45;4.43;;;;;;;;;;5064744;28;20090;-77
2022/05/31 08:45:59;;;;;;;9.07;4.50;;;;;;;;;;5062948;28;20028;-78
2022/05/31 08:48:25;;;;;;;;;;;;;;;;;;5001004;28;20359;-78
2022/05/31 08:56:57;;;;;;;15.23;4.88;;;;;;;;;;5064638;28;20036;-78
2022/05/31 08:59:28;;;;;;;10.93;4.80;;;;;;;;;;5063145;28;20166;-78
2022/05/31 09:01:57;;;;;;;12.77;4.45;;;;;;;;;;5063479;28;20017;-78
2022/05/31 09:04:27;;;;;;;12.07;3.83;;;;;;;;;;5062099;28;20041;-78
2022/05/31 09:06:55;;;;;;;13.65;4.00;;;;;;;;;;5063446;28;20017;-79
2022/05/31 09:09:26;;;;;;;8.77;3.40;;;;;;;;;;5063973;28;20078;-78
2022/05/31 09:12:01;;;;;;;9.45;3.78;;;;;;;;;;5063011;28;20361;-78
2022/05/31 09:14:51;;;;;;;7.53;3.63;;;;;;;;;;5068109;28;20462;-78
2022/05/31 09:17:35;;;;;;;11.95;3.65;;;;;;;;;;5062863;28;20039;-78
2022/05/31 09:20:16;;;;;;;9.73;3.88;;;;;;;;;;5063838;28;20555;-78
2022/05/31 09:22:45;;;;;;;18.42;3.72;;;;;;;;;;5062530;28;20044;-78
2022/05/31 09:25:11;;;;;;;10.20;4.03;;;;;;;;;;5065333;28;20527;-78
2022/05/31 09:27:45;;;;;;;13.02;3.58;;;;;;;;;;5063003;28;20017;-79
2022/05/31 09:30:11;;;;;;;12.18;4.10;;;;;;;;;;5066186;28;20567;-79
2022/05/31 09:33:04;;;;;;;14.80;3.95;;;;;;;;;;5065697;28;20258;-77
2022/05/31 09:35:40;;;;;;;11.95;3.97;;;;;;;;;;5059315;28;20037;-78
2022/05/31 09:38:19;;;;;;;9.32;3.15;;;;;;;;;;5067408;28;20095;-79
2022/05/31 09:40:47;;;;;;;13.38;3.40;;;;;;;;;;5069903;28;20379;-78
2022/05/31 09:43:15;;;;;;;10.52;3.13;;;;;;;;;;5067066;28;20024;-78
2022/05/31 09:45:48;;;;;;;11.57;3.50;;;;;;;;;;5075160;28;20093;-77
2022/05/31 09:48:15;;;;;;;12.50;2.97;;;;;;;;;;5066012;28;20029;-78
2022/05/31 09:50:44;;;;;;;11.13;3.50;;;;;;;;;;5066583;28;20032;-78
2022/05/31 09:58:40;;;;;;;15.20;3.47;;;;;;;;;;5065159;28;20039;-78
2022/05/31 10:01:15;;;;;;;12.75;3.25;;;;;;;;;;5066020;28;20029;-78
2022/05/31 10:03:46;;;;;;;12.55;4.65;;;;;;;;;;5065971;28;20037;-79
2022/05/31 10:06:15;;;;;;;11.20;3.22;;;;;;;;;;5065898;28;20116;-79
2022/05/31 10:08:41;;;;;;;11.88;4.32;;;;;;;;;;5064131;28;20031;-78
2022/05/31 10:11:15;;;;;;;9.27;3.25;;;;;;;;;;5065915;28;20036;-78
2022/05/31 10:13:42;;;;;;;10.30;3.42;;;;;;;;;;5066195;28;20032;-79
2022/05/31 10:16:16;;;;;;;7.10;2.92;;;;;;;;;;5065978;28;20043;-78
2022/05/31 10:18:53;;;;;;;9.23;2.88;;;;;;;;;;5065657;28;20496;-79
2022/05/31 10:21:34;;;;;;;9.27;3.13;;;;;;;;;;5064127;28;20447;-78
2022/05/31 10:24:20;;;;;;;9.32;3.40;;;;;;;;;;5065566;28;20020;-78
2022/05/31 10:27:05;;;;;;;12.35;3.65;;;;;;;;;;5065284;28;20089;-78
2022/05/31 10:29:33;;;;;;;8.45;3.15;;;;;;;;;;5065856;28;20066;-79
2022/05/31 10:32:00;;;;;;;11.13;3.53;;;;;;;;;;5063774;28;20560;-78
2022/05/31 10:34:41;;;;;;;12.75;3.38;;;;;;;;;;5065183;28;20040;-78
2022/05/31 10:37:22;;;;;;;14.52;3.22;;;;;;;;;;5078702;28;20043;-78
2022/05/31 10:39:59;;;;;;;13.82;3.92;;;;;;;;;;5085654;28;20073;-79
2022/05/31 10:42:25;;;;;;;8.43;2.92;;;;;;;;;;5085528;28;20021;-78
2022/05/31 10:44:52;;;;;;;9.05;2.95;;;;;;;;;;5083994;28;20024;-79
2022/05/31 10:47:19;;;;;;;10.05;3.05;;;;;;;;;;5085268;28;20047;-78
2022/05/31 10:49:46;;;;;;;15.10;3.42;;;;;;;;;;5085172;28;20175;-78
2022/05/31 10:52:31;;;;;;;11.18;3.35;;;;;;;;;;5085621;28;20115;-78
2022/05/31 10:55:15;;;;;;;9.82;3.10;;;;;;;;;;5072233;28;20043;-77
2022/05/31 10:57:59;;;;;;;6.00;2.90;;;;;;;;;;5078196;28;20402;-78
2022/05/31 11:00:32;;;;;;;14.52;3.75;;;;;;;;;;5083511;28;20084;-79
2022/05/31 11:03:21;;;;;;;8.27;3.45;;;;;;;;;;5085140;28;20047;-79
2022/05/31 11:05:54;;;;;;;12.18;4.05;;;;;;;;;;5074730;28;20454;-79
2022/05/31 11:11:29;;;;;;;8.88;3.40;;;;;;;;;;5084630;28;20047;-78
2022/05/31 11:13:55;;;;;;;11.02;3.20;;;;;;;;;;5085562;28;20031;-79
2022/05/31 11:16:42;;;;;;;11.98;3.75;;;;;;;;;;5085170;28;20028;-78
2022/05/31 11:19:17;;;;;;;11.63;3.63;;;;;;;;;;5041861;28;20062;-79
2022/05/31 11:21:43;;;;;;;8.52;3.08;;;;;;;;;;5084943;28;20032;-78
2022/05/31 11:24:16;;;;;;;15.77;3.65;;;;;;;;;;5085089;28;20519;-78
2022/05/31 11:27:02;;;;;;;17.13;3.78;;;;;;;;;;5083151;28;20047;-78
2022/05/31 11:29:38;;;;;;;9.75;3.25;;;;;;;;;;5085808;28;20028;-78
2022/05/31 11:32:04;;;;;;;11.80;3.63;;;;;;;;;;5062905;28;20682;-78
2022/05/31 11:34:40;;;;;;;13.45;3.65;;;;;;;;;;5071791;28;20414;-78
2022/05/31 11:37:21;;;;;;;14.18;3.95;;;;;;;;;;5073786;28;20115;-78
2022/05/31 11:39:57;;;;;;;14.63;3.97;;;;;;;;;;5069875;28;20027;-79
2022/05/31 11:42:23;;;;;;;9.25;3.53;;;;;;;;;;5068366;28;20056;-79
2022/05/31 11:44:49;;;;;;;11.63;3.47;;;;;;;;;;5069300;28;20037;-79
2022/05/31 11:47:32;;;;;;;7.78;3.45;;;;;;;;;;5065604;28;20024;-78
2022/05/31 11:50:16;;;;;;;9.57;3.97;;;;;;;;;;5071791;28;20074;-78
2022/05/31 11:53:03;;;;;;;10.02;3.33;;;;;;;;;;5070914;28;20016;-78
2022/05/31 11:55:29;;;;;;;8.23;3.22;;;;;;;;;;5073879;28;20024;-79
2022/05/31 11:58:22;;;;;;;11.32;3.30;;;;;;;;;;5067832;28;20020;-78
2022/05/31 12:00:59;;;;;;;8.98;3.17;;;;;;;;;;5066222;28;20024;-78
2022/05/31 12:03:44;;;;;;;13.77;3.60;;;;;;;;;;5071922;28;20424;-78
2022/05/31 12:06:23;;;;;;;12.98;3.25;;;;;;;;;;5072538;28;20020;-78
2022/05/31 12:08:59;;;;;;;15.40;3.50;;;;;;;;;;5070483;28;20036;-78
2022/05/31 12:11:41;;;;;;;10.95;3.22;;;;;;;;;;5070323;28;20016;-78
2022/05/31 12:14:11;;;;;;;16.15;3.35;;;;;;;;;;5067957;28;20016;-79
2022/05/31 12:16:38;;;;;;;6.00;3.08;;;;;;;;;;5068694;28;20344;-78
2022/05/31 12:19:04;;;;;;;11.32;3.72;;;;;;;;;;5072342;28;20028;-79
2022/05/31 12:21:46;;;;;;;7.53;3.60;;;;;;;;;;5075136;28;20025;-78
2022/05/31 12:24:21;;;;;;;9.85;3.70;;;;;;;;;;5075538;28;20032;-77
2022/05/31 12:26:52;;;;;;;9.90;3.47;;;;;;;;;;5076463;28;20065;-78
2022/05/31 12:29:27;;;;;;;14.02;3.58;;;;;;;;;;5076746;28;20024;-78
2022/05/31 12:32:14;;;;;;;10.02;3.40;;;;;;;;;;5070093;28;20589;-77
2022/05/31 12:34:41;;;;;;;11.60;3.53;;;;;;;;;;5084452;28;20166;-78
2022/05/31 12:37:12;;;;;;;11.40;2.85;;;;;;;;;;5084176;28;20422;-78
2022/05/31 12:39:39;;;;;;;8.80;3.25;;;;;;;;;;5084833;28;20415;-78
2022/05/31 12:42:14;;;;;;;11.30;2.97;;;;;;;;;;5084334;28;20392;-78
2022/05/31 12:44:41;;;;;;;7.43;2.95;;;;;;;;;;5084897;28;20028;-79
2022/05/31 12:47:17;;;;;;;10.10;3.25;;;;;;;;;;5079435;28;20467;-79
2022/05/31 12:49:52;;;;;;;12.90;3.92;;;;;;;;;;5064374;28;20032;-77
2022/05/31 12:55:12;;;;;;;9.82;3.58;;;;;;;;;;5042482;28;20139;-78
2022/05/31 13:00:46;;;;;;;9.55;2.90;;;;;;;;;;5041186;28;20137;-78
2022/05/31 13:03:35;;;;;;;9.02;3.35;;;;;;;;;;5080065;28;20228;-79
2022/05/31 13:06:01;;;;;;;9.38;2.65;;;;;;;;;;5082352;28;20435;-78
2022/05/31 13:08:45;;;;;;;11.60;3.00;;;;;;;;;;5078264;28;20107;-78
2022/05/31 13:19:39;;;;;;;14.00;3.80;;;;;;;;;;5073548;28;20027;-78
2022/05/31 13:22:10;;;;;;;12.90;3.50;;;;;;;;;;5078940;28;20494;-78
2022/05/31 13:24:38;;;;;;;15.35;3.80;;;;;;;;;;5075094;28;20032;-77
2022/05/31 13:27:08;;;;;;;12.27;3.00;;;;;;;;;;5075219;28;20016;-79
2022/05/31 13:29:34;;;;;;;9.20;3.25;;;;;;;;;;5063820;28;20029;-78
2022/05/31 13:32:01;;;;;;;11.18;3.25;;;;;;;;;;5060844;28;20012;-77
2022/05/31 13:34:36;;;;;;;12.82;3.28;;;;;;;;;;5062583;28;20036;-79
2022/05/31 13:37:04;;;;;;;11.95;3.90;;;;;;;;;;5057614;28;20021;-78
2022/05/31 13:39:31;;;;;;;8.07;2.88;;;;;;;;;;5067188;28;20284;-79
2022/05/31 13:42:01;;;;;;;18.73;3.97;;;;;;;;;;5060946;28;20025;-78
2022/05/31 13:44:31;;;;;;;17.10;3.58;;;;;;;;;;5063932;28;20020;-78
2022/05/31 13:46:59;;;;;;;13.27;3.38;;;;;;;;;;5080347;28;20131;-77
2022/05/31 13:49:36;;;;;;;7.88;3.10;;;;;;;;;;5082187;28;20031;-78
2022/05/31 13:52:04;;;;;;;11.13;3.40;;;;;;;;;;5083068;28;20452;-78
2022/05/31 13:54:38;;;;;;;8.63;3.42;;;;;;;;;;5074852;28;20029;-78
2022/05/31 13:57:04;;;;;;;13.02;3.40;;;;;;;;;;5079524;28;20120;-78
2022/05/31 13:59:32;;;;;;;8.57;2.90;;;;;;;;;;5079834;28;20096;-78
2022/05/31 14:01:58;;;;;;;10.90;3.47;;;;;;;;;;5067748;28;20107;-78
2022/05/31 14:04:31;;;;;;;15.80;3.80;;;;;;;;;;5075754;28;20043;-78
2022/05/31 14:06:58;;;;;;;13.98;3.60;;;;;;;;;;5070003;28;20227;-78
2022/05/31 14:09:28;;;;;;;8.35;3.47;;;;;;;;;;5085931;28;20032;-77
2022/05/31 14:11:55;;;;;;;8.68;3.13;;;;;;;;;;5078619;28;20481;-78
2022/05/31 14:14:24;;;;;;;11.32;4.57;;;;;;;;;;5079450;28;20071;-78
2022/05/31 14:16:50;;;;;;;9.27;4.47;;;;;;;;;;5073850;28;20365;-77
2022/05/31 14:19:18;;;;;;;9.48;4.53;;;;;;;;;;5081770;28;20058;-78
2022/05/31 14:21:45;;;;;;;7.43;4.22;;;;;;;;;;5085877;28;20032;-78
2022/05/31 14:24:16;;;;;;;11.35;4.57;;;;;;;;;;5084427;28;20093;-78
2022/05/31 14:26:43;;;;;;;8.13;4.35;;;;;;;;;;5085111;28;20073;-78
2022/05/31 14:29:16;;;;;;;8.65;4.20;;;;;;;;;;5081969;28;20024;-78
2022/05/31 14:31:45;;;;;;;11.02;4.65;;;;;;;;;;5079894;28;20020;-77
2022/05/31 14:34:22;;;;;;;9.98;4.15;;;;;;;;;;5080731;28;20047;-78
2022/05/31 14:36:49;;;;;;;9.32;4.50;;;;;;;;;;5073211;28;20165;-77
2022/05/31 14:39:21;;;;;;;7.35;3.90;;;;;;;;;;5080350;28;20683;-78
2022/05/31 14:41:47;;;;;;;11.30;4.13;;;;;;;;;;5084468;28;20031;-78
2022/05/31 14:44:32;;;;;;;9.27;3.60;;;;;;;;;;5068560;28;20404;-77
2022/05/31 14:47:07;;;;;;;11.10;3.83;;;;;;;;;;5053408;28;20483;-78
2022/05/31 14:49:39;;;;;;;8.82;4.22;;;;;;;;;;5063014;28;20032;-78
2022/05/31 14:52:19;;;;;;;9.55;4.30;;;;;;;;;;5081281;28;20020;-78
2022/05/31 14:54:47;;;;;;;14.73;4.03;;;;;;;;;;5078542;28;20039;-79
2022/05/31 14:57:24;;;;;;;13.30;4.40;;;;;;;;;;5058209;28;20259;-78
2022/05/31 14:59:50;;;;;;;12.68;4.25;;;;;;;;;;5069836;28;20261;-78
2022/05/31 15:02:21;;;;;;;6.97;3.78;;;;;;;;;;5081091;28;20052;-78
2022/05/31 15:04:52;;;;;;;10.32;4.55;;;;;;;;;;5076132;28;20205;-78
2022/05/31 15:07:23;;;;;;;9.75;4.32;;;;;;;;;;5070026;28;20082;-78
2022/05/31 15:10:09;;;;;;;8.52;4.30;;;;;;;;;;5067689;28;20423;-78
2022/05/31 15:20:53;;;;;;;8.43;4.25;;;;;;;;;;5081865;28;20055;-78
2022/05/31 15:23:21;;;;;;;12.50;4.10;;;;;;;;;;5085157;28;20052;-78
2022/05/31 15:25:59;;;;;;;10.27;4.28;;;;;;;;;;5082024;28;20027;-78
2022/05/31 15:28:25;;;;;;;13.98;4.35;;;;;;;;;;5072353;28;20028;-78
2022/05/31 15:30:51;;;;;;;11.35;4.75;;;;;;;;;;5085211;28;20236;-78
2022/05/31 15:33:18;;;;;;;12.15;4.55;;;;;;;;;;5083242;28;20044;-78
2022/05/31 15:35:44;;;;;;;9.13;3.88;;;;;;;;;;5079883;28;20043;-77
2022/05/31 15:38:13;;;;;;;12.50;4.47;;;;;;;;;;5077067;28;20024;-78